sensor_id;sensor_type;location;lat;lon;timestamp;P1;durP1;ratioP1;P2;durP2;ratioP2
5912;SDS011;2982;42.684;23.356;2022-12-08T00:01:04;35.40;;;20.13;;
5912;SDS011;2982;42.684;23.356;2022-12-08T00:03:41;41.57;;;22.97;;
5912;SDS011;2982;42.684;23.356;2022-12-08T00:06:09;40.77;;;21.80;;
5912;SDS011;2982;42.684;23.356;2022-12-08T00:08:57;29.67;;;17.93;;
5912;SDS011;2982;42.684;23.356;2022-12-08T00:11:22;32.53;;;18.47;;
5912;SDS011;2982;42.684;23.356;2022-12-08T00:13:48;36.30;;;19.83;;
5912;SDS011;2982;42.684;23.356;2022-12-08T00:16:13;33.70;;;18.00;;
5912;SDS011;2982;42.684;23.356;2022-12-08T00:18:38;37.13;;;19.13;;
5912;SDS011;2982;42.684;23.356;2022-12-08T00:21:03;34.17;;;19.13;;
5912;SDS011;2982;42.684;23.356;2022-12-08T00:23:29;36.13;;;19.27;;
5912;SDS011;2982;42.684;23.356;2022-12-08T00:25:54;41.07;;;20.07;;
5912;SDS011;2982;42.684;23.356;2022-12-08T00:28:19;41.53;;;20.10;;
5912;SDS011;2982;42.684;23.356;2022-12-08T00:30:45;30.70;;;17.47;;
5912;SDS011;2982;42.684;23.356;2022-12-08T00:33:11;34.87;;;19.53;;
5912;SDS011;2982;42.684;23.356;2022-12-08T00:35:36;33.27;;;18.53;;
5912;SDS011;2982;42.684;23.356;2022-12-08T00:38:02;28.23;;;17.43;;
5912;SDS011;2982;42.684;23.356;2022-12-08T00:40:28;30.73;;;18.77;;
5912;SDS011;2982;42.684;23.356;2022-12-08T00:42:53;35.00;;;18.33;;
5912;SDS011;2982;42.684;23.356;2022-12-08T00:45:18;31.73;;;19.23;;
5912;SDS011;2982;42.684;23.356;2022-12-08T00:47:44;35.83;;;19.13;;
5912;SDS011;2982;42.684;23.356;2022-12-08T00:50:09;32.13;;;18.20;;
5912;SDS011;2982;42.684;23.356;2022-12-08T00:52:35;40.13;;;20.47;;
5912;SDS011;2982;42.684;23.356;2022-12-08T00:55:00;42.07;;;19.23;;
5912;SDS011;2982;42.684;23.356;2022-12-08T00:57:26;35.60;;;18.70;;
5912;SDS011;2982;42.684;23.356;2022-12-08T00:59:51;34.50;;;18.93;;
5912;SDS011;2982;42.684;23.356;2022-12-08T01:02:16;31.53;;;17.60;;
5912;SDS011;2982;42.684;23.356;2022-12-08T01:04:41;30.17;;;17.30;;
5912;SDS011;2982;42.684;23.356;2022-12-08T01:07:07;34.53;;;18.27;;
5912;SDS011;2982;42.684;23.356;2022-12-08T01:09:33;30.10;;;17.67;;
5912;SDS011;2982;42.684;23.356;2022-12-08T01:11:58;31.77;;;18.13;;
5912;SDS011;2982;42.684;23.356;2022-12-08T01:14:24;30.73;;;18.97;;
5912;SDS011;2982;42.684;23.356;2022-12-08T01:16:49;30.43;;;18.70;;
5912;SDS011;2982;42.684;23.356;2022-12-08T01:19:15;37.40;;;18.47;;
5912;SDS011;2982;42.684;23.356;2022-12-08T01:21:41;34.77;;;18.17;;
5912;SDS011;2982;42.684;23.356;2022-12-08T01:24:18;36.40;;;19.73;;
5912;SDS011;2982;42.684;23.356;2022-12-08T01:26:44;37.80;;;18.33;;
5912;SDS011;2982;42.684;23.356;2022-12-08T01:29:10;30.30;;;18.17;;
5912;SDS011;2982;42.684;23.356;2022-12-08T01:31:36;30.93;;;18.30;;
5912;SDS011;2982;42.684;23.356;2022-12-08T01:34:01;37.63;;;18.77;;
5912;SDS011;2982;42.684;23.356;2022-12-08T01:36:28;38.70;;;18.53;;
5912;SDS011;2982;42.684;23.356;2022-12-08T01:39:00;35.50;;;19.30;;
5912;SDS011;2982;42.684;23.356;2022-12-08T01:41:27;33.30;;;18.33;;
5912;SDS011;2982;42.684;23.356;2022-12-08T01:43:56;34.33;;;18.93;;
5912;SDS011;2982;42.684;23.356;2022-12-08T01:46:26;33.97;;;19.47;;
5912;SDS011;2982;42.684;23.356;2022-12-08T01:48:59;32.57;;;18.47;;
5912;SDS011;2982;42.684;23.356;2022-12-08T01:51:40;35.67;;;20.40;;
5912;SDS011;2982;42.684;23.356;2022-12-08T01:54:14;41.10;;;23.10;;
5912;SDS011;2982;42.684;23.356;2022-12-08T01:57:14;41.17;;;22.20;;
5912;SDS011;2982;42.684;23.356;2022-12-08T01:59:38;41.27;;;22.10;;
5912;SDS011;2982;42.684;23.356;2022-12-08T02:02:08;38.90;;;22.63;;
5912;SDS011;2982;42.684;23.356;2022-12-08T02:04:34;36.80;;;21.50;;
5912;SDS011;2982;42.684;23.356;2022-12-08T02:06:59;37.47;;;21.03;;
5912;SDS011;2982;42.684;23.356;2022-12-08T02:09:26;37.53;;;21.50;;
5912;SDS011;2982;42.684;23.356;2022-12-08T02:11:51;41.17;;;22.63;;
5912;SDS011;2982;42.684;23.356;2022-12-08T02:14:20;35.13;;;21.07;;
5912;SDS011;2982;42.684;23.356;2022-12-08T02:38:22;37.23;;;21.63;;
5912;SDS011;2982;42.684;23.356;2022-12-08T02:43:34;42.47;;;21.17;;
5912;SDS011;2982;42.684;23.356;2022-12-08T02:46:18;29.87;;;17.57;;
5912;SDS011;2982;42.684;23.356;2022-12-08T02:48:48;33.63;;;19.07;;
5912;SDS011;2982;42.684;23.356;2022-12-08T02:51:16;30.60;;;17.23;;
5912;SDS011;2982;42.684;23.356;2022-12-08T02:53:42;30.70;;;18.03;;
5912;SDS011;2982;42.684;23.356;2022-12-08T03:03:58;34.67;;;18.00;;
5912;SDS011;2982;42.684;23.356;2022-12-08T03:09:41;34.23;;;18.83;;
5912;SDS011;2982;42.684;23.356;2022-12-08T03:14:58;30.17;;;19.13;;
5912;SDS011;2982;42.684;23.356;2022-12-08T03:17:29;35.53;;;18.93;;
5912;SDS011;2982;42.684;23.356;2022-12-08T03:19:56;32.17;;;19.03;;
5912;SDS011;2982;42.684;23.356;2022-12-08T03:22:25;34.10;;;18.63;;
5912;SDS011;2982;42.684;23.356;2022-12-08T03:24:52;41.17;;;20.83;;
5912;SDS011;2982;42.684;23.356;2022-12-08T03:27:21;31.10;;;19.50;;
5912;SDS011;2982;42.684;23.356;2022-12-08T03:29:50;35.30;;;19.93;;
5912;SDS011;2982;42.684;23.356;2022-12-08T03:34:48;31.00;;;18.53;;
5912;SDS011;2982;42.684;23.356;2022-12-08T03:37:15;38.00;;;19.90;;
5912;SDS011;2982;42.684;23.356;2022-12-08T03:39:40;32.63;;;19.67;;
5912;SDS011;2982;42.684;23.356;2022-12-08T03:42:05;36.63;;;21.37;;
5912;SDS011;2982;42.684;23.356;2022-12-08T03:44:31;43.27;;;21.67;;
5912;SDS011;2982;42.684;23.356;2022-12-08T03:46:56;38.70;;;21.23;;
5912;SDS011;2982;42.684;23.356;2022-12-08T03:49:21;41.07;;;22.10;;
5912;SDS011;2982;42.684;23.356;2022-12-08T03:51:47;39.40;;;20.67;;
5912;SDS011;2982;42.684;23.356;2022-12-08T03:54:12;41.47;;;21.00;;
5912;SDS011;2982;42.684;23.356;2022-12-08T03:56:37;36.47;;;20.07;;
5912;SDS011;2982;42.684;23.356;2022-12-08T03:59:04;35.90;;;21.20;;
5912;SDS011;2982;42.684;23.356;2022-12-08T04:01:30;34.23;;;19.97;;
5912;SDS011;2982;42.684;23.356;2022-12-08T04:03:55;33.33;;;22.43;;
5912;SDS011;2982;42.684;23.356;2022-12-08T04:06:21;34.87;;;19.93;;
5912;SDS011;2982;42.684;23.356;2022-12-08T04:08:47;39.37;;;20.83;;
5912;SDS011;2982;42.684;23.356;2022-12-08T04:11:12;41.13;;;19.97;;
5912;SDS011;2982;42.684;23.356;2022-12-08T04:13:38;41.63;;;20.90;;
5912;SDS011;2982;42.684;23.356;2022-12-08T04:16:05;42.23;;;20.20;;
5912;SDS011;2982;42.684;23.356;2022-12-08T04:18:32;37.33;;;20.07;;
5912;SDS011;2982;42.684;23.356;2022-12-08T04:20:58;32.83;;;20.90;;
5912;SDS011;2982;42.684;23.356;2022-12-08T04:23:23;39.20;;;21.50;;
5912;SDS011;2982;42.684;23.356;2022-12-08T04:25:50;35.30;;;19.67;;
5912;SDS011;2982;42.684;23.356;2022-12-08T04:28:16;33.27;;;20.27;;
5912;SDS011;2982;42.684;23.356;2022-12-08T04:30:41;41.60;;;21.40;;
5912;SDS011;2982;42.684;23.356;2022-12-08T04:33:06;39.50;;;21.47;;
5912;SDS011;2982;42.684;23.356;2022-12-08T04:35:32;38.47;;;20.17;;
5912;SDS011;2982;42.684;23.356;2022-12-08T04:37:57;35.70;;;20.50;;
5912;SDS011;2982;42.684;23.356;2022-12-08T04:40:22;37.63;;;20.33;;
5912;SDS011;2982;42.684;23.356;2022-12-08T04:42:48;34.40;;;19.47;;
5912;SDS011;2982;42.684;23.356;2022-12-08T04:45:13;32.47;;;19.53;;
5912;SDS011;2982;42.684;23.356;2022-12-08T04:47:39;40.43;;;19.93;;
5912;SDS011;2982;42.684;23.356;2022-12-08T04:50:05;35.47;;;20.73;;
5912;SDS011;2982;42.684;23.356;2022-12-08T04:52:31;33.57;;;19.00;;
5912;SDS011;2982;42.684;23.356;2022-12-08T04:54:56;41.23;;;20.47;;
5912;SDS011;2982;42.684;23.356;2022-12-08T04:57:21;40.40;;;21.03;;
5912;SDS011;2982;42.684;23.356;2022-12-08T04:59:47;38.23;;;21.33;;
5912;SDS011;2982;42.684;23.356;2022-12-08T05:02:12;34.00;;;19.63;;
5912;SDS011;2982;42.684;23.356;2022-12-08T05:04:37;38.23;;;21.50;;
5912;SDS011;2982;42.684;23.356;2022-12-08T05:07:03;37.53;;;20.30;;
5912;SDS011;2982;42.684;23.356;2022-12-08T05:09:28;36.37;;;20.67;;
5912;SDS011;2982;42.684;23.356;2022-12-08T05:11:54;39.33;;;21.63;;
5912;SDS011;2982;42.684;23.356;2022-12-08T05:14:19;37.00;;;19.70;;
5912;SDS011;2982;42.684;23.356;2022-12-08T05:16:45;34.77;;;18.90;;
5912;SDS011;2982;42.684;23.356;2022-12-08T05:19:11;34.10;;;20.30;;
5912;SDS011;2982;42.684;23.356;2022-12-08T05:21:36;41.70;;;21.00;;
5912;SDS011;2982;42.684;23.356;2022-12-08T05:24:02;31.43;;;19.90;;
5912;SDS011;2982;42.684;23.356;2022-12-08T05:26:27;38.80;;;20.90;;
5912;SDS011;2982;42.684;23.356;2022-12-08T05:28:52;39.87;;;25.13;;
5912;SDS011;2982;42.684;23.356;2022-12-08T05:31:18;50.30;;;28.73;;
5912;SDS011;2982;42.684;23.356;2022-12-08T05:33:43;52.23;;;29.10;;
5912;SDS011;2982;42.684;23.356;2022-12-08T05:36:13;49.57;;;25.77;;
5912;SDS011;2982;42.684;23.356;2022-12-08T05:38:39;43.50;;;25.80;;
5912;SDS011;2982;42.684;23.356;2022-12-08T05:41:08;45.97;;;25.03;;
5912;SDS011;2982;42.684;23.356;2022-12-08T05:43:37;50.33;;;26.80;;
5912;SDS011;2982;42.684;23.356;2022-12-08T05:46:02;56.80;;;28.17;;
5912;SDS011;2982;42.684;23.356;2022-12-08T05:48:28;49.87;;;27.57;;
5912;SDS011;2982;42.684;23.356;2022-12-08T05:50:53;59.37;;;27.83;;
5912;SDS011;2982;42.684;23.356;2022-12-08T05:53:19;54.57;;;26.43;;
5912;SDS011;2982;42.684;23.356;2022-12-08T05:55:44;48.90;;;26.50;;
5912;SDS011;2982;42.684;23.356;2022-12-08T05:58:11;48.70;;;26.70;;
5912;SDS011;2982;42.684;23.356;2022-12-08T06:00:38;41.63;;;25.47;;
5912;SDS011;2982;42.684;23.356;2022-12-08T06:03:04;50.53;;;24.93;;
5912;SDS011;2982;42.684;23.356;2022-12-08T06:05:31;42.63;;;23.10;;
5912;SDS011;2982;42.684;23.356;2022-12-08T06:07:57;49.50;;;25.33;;
5912;SDS011;2982;42.684;23.356;2022-12-08T06:10:23;57.07;;;24.67;;
5912;SDS011;2982;42.684;23.356;2022-12-08T06:12:48;48.57;;;24.67;;
5912;SDS011;2982;42.684;23.356;2022-12-08T06:15:13;44.33;;;23.40;;
5912;SDS011;2982;42.684;23.356;2022-12-08T06:17:39;46.17;;;26.30;;
5912;SDS011;2982;42.684;23.356;2022-12-08T06:20:04;44.40;;;25.83;;
5912;SDS011;2982;42.684;23.356;2022-12-08T06:22:30;51.50;;;24.10;;
5912;SDS011;2982;42.684;23.356;2022-12-08T06:24:56;51.00;;;24.37;;
5912;SDS011;2982;42.684;23.356;2022-12-08T06:27:21;48.40;;;24.70;;
5912;SDS011;2982;42.684;23.356;2022-12-08T06:29:46;61.10;;;26.33;;
5912;SDS011;2982;42.684;23.356;2022-12-08T06:32:11;50.53;;;25.90;;
5912;SDS011;2982;42.684;23.356;2022-12-08T06:34:37;50.33;;;26.30;;
5912;SDS011;2982;42.684;23.356;2022-12-08T06:37:02;58.90;;;26.33;;
5912;SDS011;2982;42.684;23.356;2022-12-08T06:39:27;55.20;;;28.10;;
5912;SDS011;2982;42.684;23.356;2022-12-08T06:41:53;52.63;;;26.80;;
5912;SDS011;2982;42.684;23.356;2022-12-08T06:44:19;65.50;;;27.37;;
5912;SDS011;2982;42.684;23.356;2022-12-08T06:46:44;52.23;;;26.33;;
5912;SDS011;2982;42.684;23.356;2022-12-08T06:49:10;48.70;;;26.77;;
5912;SDS011;2982;42.684;23.356;2022-12-08T06:51:35;57.47;;;25.93;;
5912;SDS011;2982;42.684;23.356;2022-12-08T06:54:00;49.67;;;25.97;;
5912;SDS011;2982;42.684;23.356;2022-12-08T06:56:25;53.30;;;25.33;;
5912;SDS011;2982;42.684;23.356;2022-12-08T06:58:51;47.63;;;25.30;;
5912;SDS011;2982;42.684;23.356;2022-12-08T07:01:16;52.67;;;26.90;;
5912;SDS011;2982;42.684;23.356;2022-12-08T07:03:41;52.87;;;26.77;;
5912;SDS011;2982;42.684;23.356;2022-12-08T07:06:07;53.77;;;27.43;;
5912;SDS011;2982;42.684;23.356;2022-12-08T07:08:32;47.37;;;26.97;;
5912;SDS011;2982;42.684;23.356;2022-12-08T07:10:58;51.77;;;26.93;;
5912;SDS011;2982;42.684;23.356;2022-12-08T07:13:23;42.90;;;25.43;;
5912;SDS011;2982;42.684;23.356;2022-12-08T07:15:49;46.27;;;25.80;;
5912;SDS011;2982;42.684;23.356;2022-12-08T07:18:14;40.03;;;25.07;;
5912;SDS011;2982;42.684;23.356;2022-12-08T07:20:39;39.93;;;24.17;;
5912;SDS011;2982;42.684;23.356;2022-12-08T07:23:04;42.60;;;24.53;;
5912;SDS011;2982;42.684;23.356;2022-12-08T07:25:30;49.77;;;23.37;;
5912;SDS011;2982;42.684;23.356;2022-12-08T07:27:55;44.97;;;22.07;;
5912;SDS011;2982;42.684;23.356;2022-12-08T07:30:20;42.97;;;25.27;;
5912;SDS011;2982;42.684;23.356;2022-12-08T07:32:46;43.07;;;23.60;;
5912;SDS011;2982;42.684;23.356;2022-12-08T07:35:11;49.07;;;24.23;;
5912;SDS011;2982;42.684;23.356;2022-12-08T07:37:37;52.70;;;24.97;;
5912;SDS011;2982;42.684;23.356;2022-12-08T07:40:05;44.53;;;24.37;;
5912;SDS011;2982;42.684;23.356;2022-12-08T07:42:32;47.00;;;25.53;;
5912;SDS011;2982;42.684;23.356;2022-12-08T07:44:58;46.93;;;26.27;;
5912;SDS011;2982;42.684;23.356;2022-12-08T07:47:23;42.63;;;25.37;;
5912;SDS011;2982;42.684;23.356;2022-12-08T07:49:49;46.83;;;24.27;;
5912;SDS011;2982;42.684;23.356;2022-12-08T07:52:14;48.50;;;24.60;;
5912;SDS011;2982;42.684;23.356;2022-12-08T07:54:39;39.93;;;26.10;;
5912;SDS011;2982;42.684;23.356;2022-12-08T07:57:05;43.53;;;24.93;;
5912;SDS011;2982;42.684;23.356;2022-12-08T07:59:30;38.10;;;24.77;;
5912;SDS011;2982;42.684;23.356;2022-12-08T08:01:56;43.33;;;24.40;;
5912;SDS011;2982;42.684;23.356;2022-12-08T08:04:21;42.03;;;23.87;;
5912;SDS011;2982;42.684;23.356;2022-12-08T08:06:46;46.07;;;24.27;;
5912;SDS011;2982;42.684;23.356;2022-12-08T08:09:12;45.73;;;24.47;;
5912;SDS011;2982;42.684;23.356;2022-12-08T08:11:37;42.60;;;24.43;;
5912;SDS011;2982;42.684;23.356;2022-12-08T08:14:02;43.63;;;23.67;;
5912;SDS011;2982;42.684;23.356;2022-12-08T08:16:28;41.93;;;23.43;;
5912;SDS011;2982;42.684;23.356;2022-12-08T08:18:53;41.53;;;23.40;;
5912;SDS011;2982;42.684;23.356;2022-12-08T08:21:19;42.30;;;23.37;;
5912;SDS011;2982;42.684;23.356;2022-12-08T08:23:44;34.53;;;22.73;;
5912;SDS011;2982;42.684;23.356;2022-12-08T08:26:10;31.87;;;21.20;;
5912;SDS011;2982;42.684;23.356;2022-12-08T08:28:36;43.47;;;22.17;;
5912;SDS011;2982;42.684;23.356;2022-12-08T08:31:01;47.20;;;22.73;;
5912;SDS011;2982;42.684;23.356;2022-12-08T08:33:26;35.67;;;20.70;;
5912;SDS011;2982;42.684;23.356;2022-12-08T08:35:52;37.73;;;22.50;;
5912;SDS011;2982;42.684;23.356;2022-12-08T08:38:18;44.57;;;23.53;;
5912;SDS011;2982;42.684;23.356;2022-12-08T08:40:43;42.60;;;23.17;;
5912;SDS011;2982;42.684;23.356;2022-12-08T08:43:09;37.53;;;21.40;;
5912;SDS011;2982;42.684;23.356;2022-12-08T08:45:34;32.67;;;18.10;;
5912;SDS011;2982;42.684;23.356;2022-12-08T08:48:00;33.23;;;19.83;;
5912;SDS011;2982;42.684;23.356;2022-12-08T08:50:25;45.50;;;22.47;;
5912;SDS011;2982;42.684;23.356;2022-12-08T08:52:51;35.10;;;21.30;;
5912;SDS011;2982;42.684;23.356;2022-12-08T08:55:16;39.40;;;23.53;;
5912;SDS011;2982;42.684;23.356;2022-12-08T08:57:42;41.10;;;22.73;;
5912;SDS011;2982;42.684;23.356;2022-12-08T09:00:08;29.20;;;18.73;;
5912;SDS011;2982;42.684;23.356;2022-12-08T09:02:33;35.83;;;19.60;;
5912;SDS011;2982;42.684;23.356;2022-12-08T09:04:59;28.47;;;17.97;;
5912;SDS011;2982;42.684;23.356;2022-12-08T09:07:24;32.50;;;19.47;;
5912;SDS011;2982;42.684;23.356;2022-12-08T09:09:49;29.47;;;17.33;;
5912;SDS011;2982;42.684;23.356;2022-12-08T09:12:14;28.07;;;17.47;;
5912;SDS011;2982;42.684;23.356;2022-12-08T09:14:40;26.37;;;18.00;;
5912;SDS011;2982;42.684;23.356;2022-12-08T09:17:05;21.60;;;14.40;;
5912;SDS011;2982;42.684;23.356;2022-12-08T09:19:31;24.10;;;15.37;;
5912;SDS011;2982;42.684;23.356;2022-12-08T09:21:56;21.37;;;14.83;;
5912;SDS011;2982;42.684;23.356;2022-12-08T09:24:22;20.00;;;13.87;;
5912;SDS011;2982;42.684;23.356;2022-12-08T09:26:47;15.47;;;11.33;;
5912;SDS011;2982;42.684;23.356;2022-12-08T09:29:12;23.93;;;13.73;;
5912;SDS011;2982;42.684;23.356;2022-12-08T09:31:38;27.00;;;15.40;;
5912;SDS011;2982;42.684;23.356;2022-12-08T09:34:03;26.03;;;15.47;;
5912;SDS011;2982;42.684;23.356;2022-12-08T09:36:29;24.30;;;15.07;;
5912;SDS011;2982;42.684;23.356;2022-12-08T09:38:54;23.60;;;16.10;;
5912;SDS011;2982;42.684;23.356;2022-12-08T09:42:02;20.33;;;13.70;;
5912;SDS011;2982;42.684;23.356;2022-12-08T09:46:51;23.17;;;14.37;;
5912;SDS011;2982;42.684;23.356;2022-12-08T09:49:18;24.00;;;15.33;;
5912;SDS011;2982;42.684;23.356;2022-12-08T09:51:47;26.97;;;16.60;;
5912;SDS011;2982;42.684;23.356;2022-12-08T09:54:17;30.07;;;14.93;;
5912;SDS011;2982;42.684;23.356;2022-12-08T09:56:46;31.53;;;16.57;;
5912;SDS011;2982;42.684;23.356;2022-12-08T10:01:55;37.92;;;19.90;;
5912;SDS011;2982;42.684;23.356;2022-12-08T10:04:25;28.53;;;16.63;;
5912;SDS011;2982;42.684;23.356;2022-12-08T10:09:49;41.60;;;17.10;;
5912;SDS011;2982;42.684;23.356;2022-12-08T10:17:33;28.40;;;18.53;;
5912;SDS011;2982;42.684;23.356;2022-12-08T10:20:17;30.07;;;19.07;;
5912;SDS011;2982;42.684;23.356;2022-12-08T10:22:45;28.42;;;17.45;;
5912;SDS011;2982;42.684;23.356;2022-12-08T10:25:19;34.50;;;18.50;;
5912;SDS011;2982;42.684;23.356;2022-12-08T10:27:57;25.37;;;16.23;;
5912;SDS011;2982;42.684;23.356;2022-12-08T10:30:23;28.93;;;17.23;;
5912;SDS011;2982;42.684;23.356;2022-12-08T10:32:49;25.30;;;15.00;;
5912;SDS011;2982;42.684;23.356;2022-12-08T10:35:16;23.27;;;13.70;;
5912;SDS011;2982;42.684;23.356;2022-12-08T10:37:56;20.13;;;13.83;;
5912;SDS011;2982;42.684;23.356;2022-12-08T10:40:27;20.25;;;15.07;;
5912;SDS011;2982;42.684;23.356;2022-12-08T10:42:54;27.48;;;14.27;;
5912;SDS011;2982;42.684;23.356;2022-12-08T10:48:04;22.57;;;13.80;;
5912;SDS011;2982;42.684;23.356;2022-12-08T10:50:41;25.13;;;13.57;;
5912;SDS011;2982;42.684;23.356;2022-12-08T10:55:45;19.70;;;14.00;;
5912;SDS011;2982;42.684;23.356;2022-12-08T10:58:32;28.55;;;13.75;;
5912;SDS011;2982;42.684;23.356;2022-12-08T11:01:04;17.67;;;12.55;;
5912;SDS011;2982;42.684;23.356;2022-12-08T11:03:35;19.55;;;12.20;;
5912;SDS011;2982;42.684;23.356;2022-12-08T11:09:03;23.92;;;13.63;;
5912;SDS011;2982;42.684;23.356;2022-12-08T11:11:48;18.70;;;12.50;;
5912;SDS011;2982;42.684;23.356;2022-12-08T11:14:26;21.05;;;13.32;;
5912;SDS011;2982;42.684;23.356;2022-12-08T11:17:04;18.27;;;13.13;;
5912;SDS011;2982;42.684;23.356;2022-12-08T11:19:35;24.63;;;13.52;;
5912;SDS011;2982;42.684;23.356;2022-12-08T11:22:02;21.75;;;13.60;;
5912;SDS011;2982;42.684;23.356;2022-12-08T11:27:33;19.35;;;12.60;;
5912;SDS011;2982;42.684;23.356;2022-12-08T11:30:00;20.40;;;12.88;;
5912;SDS011;2982;42.684;23.356;2022-12-08T11:32:27;25.48;;;13.80;;
5912;SDS011;2982;42.684;23.356;2022-12-08T11:34:59;14.73;;;12.25;;
5912;SDS011;2982;42.684;23.356;2022-12-08T11:40:12;20.58;;;12.70;;
5912;SDS011;2982;42.684;23.356;2022-12-08T11:42:53;18.23;;;11.23;;
5912;SDS011;2982;42.684;23.356;2022-12-08T11:45:38;21.55;;;12.43;;
5912;SDS011;2982;42.684;23.356;2022-12-08T11:51:16;17.83;;;12.13;;
5912;SDS011;2982;42.684;23.356;2022-12-08T11:56:21;15.65;;;12.02;;
5912;SDS011;2982;42.684;23.356;2022-12-08T11:59:27;19.50;;;11.80;;
5912;SDS011;2982;42.684;23.356;2022-12-08T12:02:00;17.80;;;11.88;;
5912;SDS011;2982;42.684;23.356;2022-12-08T12:10:16;15.48;;;11.13;;
5912;SDS011;2982;42.684;23.356;2022-12-08T12:18:27;16.55;;;10.15;;
5912;SDS011;2982;42.684;23.356;2022-12-08T12:23:40;16.45;;;9.50;;
5912;SDS011;2982;42.684;23.356;2022-12-08T12:26:17;12.60;;;9.43;;
5912;SDS011;2982;42.684;23.356;2022-12-08T12:31:15;16.35;;;9.50;;
5912;SDS011;2982;42.684;23.356;2022-12-08T12:33:42;13.93;;;9.18;;
5912;SDS011;2982;42.684;23.356;2022-12-08T12:36:10;14.82;;;8.82;;
5912;SDS011;2982;42.684;23.356;2022-12-08T12:38:38;15.18;;;8.68;;
5912;SDS011;2982;42.684;23.356;2022-12-08T12:41:08;10.25;;;7.97;;
5912;SDS011;2982;42.684;23.356;2022-12-08T12:43:37;8.55;;;6.97;;
5912;SDS011;2982;42.684;23.356;2022-12-08T12:48:47;6.78;;;6.15;;
5912;SDS011;2982;42.684;23.356;2022-12-08T12:59:30;7.20;;;6.53;;
5912;SDS011;2982;42.684;23.356;2022-12-08T13:01:59;7.78;;;7.13;;
5912;SDS011;2982;42.684;23.356;2022-12-08T13:04:28;13.85;;;8.30;;
5912;SDS011;2982;42.684;23.356;2022-12-08T13:06:57;15.05;;;7.07;;
5912;SDS011;2982;42.684;23.356;2022-12-08T13:11:56;13.18;;;8.35;;
5912;SDS011;2982;42.684;23.356;2022-12-08T13:17:16;13.05;;;8.95;;
5912;SDS011;2982;42.684;23.356;2022-12-08T13:19:52;14.63;;;8.73;;
5912;SDS011;2982;42.684;23.356;2022-12-08T13:31:00;9.82;;;8.35;;
5912;SDS011;2982;42.684;23.356;2022-12-08T13:38:29;11.50;;;8.18;;
5912;SDS011;2982;42.684;23.356;2022-12-08T13:40:57;11.65;;;8.48;;
5912;SDS011;2982;42.684;23.356;2022-12-08T13:46:06;11.80;;;8.63;;
5912;SDS011;2982;42.684;23.356;2022-12-08T13:48:50;14.75;;;8.65;;
5912;SDS011;2982;42.684;23.356;2022-12-08T13:53:52;24.73;;;15.00;;
5912;SDS011;2982;42.684;23.356;2022-12-08T13:56:23;15.90;;;10.57;;
5912;SDS011;2982;42.684;23.356;2022-12-08T13:58:50;27.48;;;13.10;;
5912;SDS011;2982;42.684;23.356;2022-12-08T14:01:19;12.15;;;10.00;;
5912;SDS011;2982;42.684;23.356;2022-12-08T14:03:51;17.63;;;11.15;;
5912;SDS011;2982;42.684;23.356;2022-12-08T14:06:19;16.05;;;10.45;;
5912;SDS011;2982;42.684;23.356;2022-12-08T14:08:53;19.27;;;11.50;;
5912;SDS011;2982;42.684;23.356;2022-12-08T14:14:05;18.73;;;11.77;;
5912;SDS011;2982;42.684;23.356;2022-12-08T14:16:43;18.35;;;10.27;;
5912;SDS011;2982;42.684;23.356;2022-12-08T14:19:18;15.27;;;10.65;;
5912;SDS011;2982;42.684;23.356;2022-12-08T14:21:46;14.68;;;11.52;;
5912;SDS011;2982;42.684;23.356;2022-12-08T14:24:23;16.55;;;12.40;;
5912;SDS011;2982;42.684;23.356;2022-12-08T14:26:53;23.83;;;11.85;;
5912;SDS011;2982;42.684;23.356;2022-12-08T14:32:28;20.85;;;12.50;;
5912;SDS011;2982;42.684;23.356;2022-12-08T14:34:57;22.65;;;12.45;;
5912;SDS011;2982;42.684;23.356;2022-12-08T14:37:26;21.58;;;12.98;;
5912;SDS011;2982;42.684;23.356;2022-12-08T14:39:59;17.60;;;11.95;;
5912;SDS011;2982;42.684;23.356;2022-12-08T14:42:28;23.60;;;14.23;;
5912;SDS011;2982;42.684;23.356;2022-12-08T14:44:58;33.70;;;19.67;;
5912;SDS011;2982;42.684;23.356;2022-12-08T14:47:31;22.30;;;13.90;;
5912;SDS011;2982;42.684;23.356;2022-12-08T14:49:57;25.83;;;17.27;;
5912;SDS011;2982;42.684;23.356;2022-12-08T14:52:23;26.50;;;17.98;;
5912;SDS011;2982;42.684;23.356;2022-12-08T14:54:49;27.25;;;18.33;;
5912;SDS011;2982;42.684;23.356;2022-12-08T14:57:16;30.63;;;17.77;;
5912;SDS011;2982;42.684;23.356;2022-12-08T14:59:41;50.58;;;32.20;;
5912;SDS011;2982;42.684;23.356;2022-12-08T15:04:45;25.55;;;15.93;;
5912;SDS011;2982;42.684;23.356;2022-12-08T15:07:22;25.90;;;17.45;;
5912;SDS011;2982;42.684;23.356;2022-12-08T15:10:08;34.33;;;21.67;;
5912;SDS011;2982;42.684;23.356;2022-12-08T15:12:33;33.95;;;18.35;;
5912;SDS011;2982;42.684;23.356;2022-12-08T15:19:59;40.63;;;17.55;;
5912;SDS011;2982;42.684;23.356;2022-12-08T15:22:25;26.30;;;17.13;;
5912;SDS011;2982;42.684;23.356;2022-12-08T15:24:53;39.42;;;19.08;;
5912;SDS011;2982;42.684;23.356;2022-12-08T15:27:20;37.00;;;19.13;;
5912;SDS011;2982;42.684;23.356;2022-12-08T15:29:47;32.70;;;17.67;;
5912;SDS011;2982;42.684;23.356;2022-12-08T15:32:15;33.70;;;18.83;;
5912;SDS011;2982;42.684;23.356;2022-12-08T15:34:42;27.23;;;17.53;;
5912;SDS011;2982;42.684;23.356;2022-12-08T15:37:12;29.33;;;18.10;;
5912;SDS011;2982;42.684;23.356;2022-12-08T15:39:50;40.50;;;20.08;;
5912;SDS011;2982;42.684;23.356;2022-12-08T15:42:15;47.08;;;22.77;;
5912;SDS011;2982;42.684;23.356;2022-12-08T15:44:41;36.57;;;21.50;;
5912;SDS011;2982;42.684;23.356;2022-12-08T15:47:19;44.53;;;23.07;;
5912;SDS011;2982;42.684;23.356;2022-12-08T15:49:46;28.13;;;18.30;;
5912;SDS011;2982;42.684;23.356;2022-12-08T15:52:14;34.97;;;21.03;;
5912;SDS011;2982;42.684;23.356;2022-12-08T15:54:40;36.53;;;21.08;;
5912;SDS011;2982;42.684;23.356;2022-12-08T15:57:08;40.22;;;21.27;;
5912;SDS011;2982;42.684;23.356;2022-12-08T15:59:41;30.43;;;20.00;;
5912;SDS011;2982;42.684;23.356;2022-12-08T16:02:07;32.10;;;18.70;;
5912;SDS011;2982;42.684;23.356;2022-12-08T16:04:36;35.10;;;20.13;;
5912;SDS011;2982;42.684;23.356;2022-12-08T16:07:01;41.40;;;18.83;;
5912;SDS011;2982;42.684;23.356;2022-12-08T16:09:39;30.90;;;19.70;;
5912;SDS011;2982;42.684;23.356;2022-12-08T16:12:13;28.20;;;17.57;;
5912;SDS011;2982;42.684;23.356;2022-12-08T16:14:41;40.07;;;18.13;;
5912;SDS011;2982;42.684;23.356;2022-12-08T16:17:10;22.20;;;14.90;;
5912;SDS011;2982;42.684;23.356;2022-12-08T16:19:37;30.10;;;15.80;;
5912;SDS011;2982;42.684;23.356;2022-12-08T16:22:03;24.83;;;15.48;;
5912;SDS011;2982;42.684;23.356;2022-12-08T16:24:28;20.83;;;12.70;;
5912;SDS011;2982;42.684;23.356;2022-12-08T16:26:53;28.67;;;14.57;;
5912;SDS011;2982;42.684;23.356;2022-12-08T16:29:19;26.63;;;13.10;;
5912;SDS011;2982;42.684;23.356;2022-12-08T16:31:45;24.80;;;14.02;;
5912;SDS011;2982;42.684;23.356;2022-12-08T16:34:11;19.27;;;13.83;;
5912;SDS011;2982;42.684;23.356;2022-12-08T16:36:36;18.07;;;11.63;;
5912;SDS011;2982;42.684;23.356;2022-12-08T16:39:02;16.20;;;12.27;;
5912;SDS011;2982;42.684;23.356;2022-12-08T16:41:27;16.83;;;10.77;;
5912;SDS011;2982;42.684;23.356;2022-12-08T16:43:52;18.90;;;12.15;;
5912;SDS011;2982;42.684;23.356;2022-12-08T16:46:18;15.73;;;10.90;;
5912;SDS011;2982;42.684;23.356;2022-12-08T16:48:44;22.43;;;11.23;;
5912;SDS011;2982;42.684;23.356;2022-12-08T16:51:14;15.87;;;9.80;;
5912;SDS011;2982;42.684;23.356;2022-12-08T16:53:40;15.40;;;10.00;;
5912;SDS011;2982;42.684;23.356;2022-12-08T16:56:06;16.47;;;8.90;;
5912;SDS011;2982;42.684;23.356;2022-12-08T16:58:31;15.60;;;10.20;;